createdAt,value
2024-04-30T00:00:50.523Z,67.25
2024-04-30T00:01:51.286Z,67.35
2024-04-30T00:02:51.932Z,67.35
2024-04-30T00:03:52.791Z,67.55
2024-04-30T00:04:53.568Z,67.49
2024-04-30T00:05:54.149Z,67.18
2024-04-30T00:06:54.950Z,67.49
2024-04-30T00:07:55.652Z,67.18
2024-04-30T00:08:56.327Z,67.18
2024-04-30T00:09:57.304Z,67.29
2024-04-30T00:10:57.640Z,67.18
2024-04-30T00:11:58.426Z,67.39
2024-04-30T00:12:59.187Z,67.18
2024-04-30T00:13:59.892Z,67.79
2024-04-30T00:15:00.584Z,67.49
2024-04-30T00:16:01.307Z,67.89
2024-04-30T00:17:02.107Z,67.69
2024-04-30T00:18:02.944Z,67.69
2024-04-30T00:19:03.741Z,67.59
2024-04-30T00:20:04.390Z,67.79
2024-04-30T00:21:04.985Z,67.69
2024-04-30T00:22:05.733Z,67.39
2024-04-30T00:23:06.508Z,67.59
2024-04-30T00:24:07.233Z,67.59
2024-04-30T00:25:08.006Z,67.89
2024-04-30T00:26:08.654Z,67.99
2024-04-30T00:27:09.393Z,67.89
2024-04-30T00:28:10.133Z,67.18
2024-04-30T00:29:10.932Z,68.10
2024-04-30T00:30:11.612Z,68.50
2024-04-30T00:31:12.398Z,67.99
2024-04-30T00:32:13.101Z,68.33
2024-04-30T00:33:13.899Z,68.19
2024-04-30T00:34:14.635Z,67.49
2024-04-30T00:35:16.072Z,66.98
2024-04-30T00:36:15.859Z,67.39
2024-04-30T00:37:16.577Z,67.39
2024-04-30T00:38:17.315Z,67.89
2024-04-30T00:39:18.125Z,67.89
2024-04-30T00:40:19.003Z,67.79
2024-04-30T00:41:19.610Z,67.89
2024-04-30T00:42:20.289Z,67.99
2024-04-30T00:43:21.036Z,67.93
2024-04-30T00:44:21.694Z,68.43
2024-04-30T00:45:22.507Z,68.40
2024-04-30T00:46:23.249Z,68.43
2024-04-30T00:47:23.950Z,68.63
2024-04-30T00:48:27.341Z,68.53
2024-04-30T00:49:25.329Z,68.84
2024-04-30T00:50:26.125Z,69.44
2024-04-30T00:51:26.998Z,69.14
2024-04-30T00:52:27.862Z,68.94
2024-04-30T00:53:28.458Z,68.73
2024-04-30T00:54:29.209Z,68.84
2024-04-30T00:55:30.162Z,68.13
2024-04-30T00:56:30.997Z,68.02
2024-04-30T00:57:31.717Z,68.33
2024-04-30T00:58:32.460Z,68.13
2024-04-30T00:59:33.078Z,67.93
2024-04-30T01:00:33.780Z,68.02
2024-04-30T01:01:34.666Z,68.43
2024-04-30T01:02:35.052Z,68.73
2024-04-30T01:03:35.748Z,68.53
2024-04-30T01:04:36.330Z,68.43
2024-04-30T01:05:37.099Z,68.13
2024-04-30T01:06:37.916Z,68.73
2024-04-30T01:07:38.645Z,68.94
2024-04-30T01:08:39.295Z,69.14
2024-04-30T01:09:39.973Z,69.04
2024-04-30T01:10:40.882Z,68.94
2024-04-30T01:11:41.240Z,68.43
2024-04-30T01:12:42.011Z,68.43
2024-04-30T01:13:42.774Z,68.23
2024-04-30T01:14:43.539Z,68.63
2024-04-30T01:15:44.273Z,68.53
2024-04-30T01:16:45.080Z,68.73
2024-04-30T01:17:46.160Z,69.14
2024-04-30T01:18:46.419Z,69.44
2024-04-30T01:19:47.167Z,69.34
2024-04-30T01:20:47.894Z,69.24
2024-04-30T01:21:48.627Z,69.34
2024-04-30T01:22:49.288Z,69.65
2024-04-30T01:23:49.971Z,70.05
2024-04-30T01:24:50.719Z,69.68
2024-04-30T01:25:51.232Z,69.88
2024-04-30T01:26:52.085Z,70.18
2024-04-30T01:27:52.882Z,69.78
2024-04-30T01:28:53.565Z,69.98
2024-04-30T01:29:54.279Z,70.29
2024-04-30T01:30:55.104Z,70.49
2024-04-30T01:31:55.933Z,70.59
2024-04-30T01:32:56.762Z,70.49
2024-04-30T01:33:57.361Z,69.68
2024-04-30T01:34:58.041Z,70.08
2024-04-30T01:35:58.722Z,70.39
2024-04-30T01:36:59.509Z,70.29
2024-04-30T01:38:00.195Z,70.18
2024-04-30T01:39:00.976Z,70.21
2024-04-30T01:40:01.912Z,70.42
2024-04-30T01:41:02.675Z,70.32
2024-04-30T01:42:03.333Z,70.72
2024-04-30T01:43:04.254Z,70.83
2024-04-30T01:44:05.054Z,70.93
2024-04-30T01:45:05.858Z,70.83
2024-04-30T01:46:06.613Z,70.72
2024-04-30T01:47:07.408Z,71.06
2024-04-30T01:48:08.230Z,71.16
2024-04-30T01:49:08.844Z,71.37
2024-04-30T01:50:09.489Z,71.47
2024-04-30T01:51:10.426Z,71.37
2024-04-30T01:52:11.208Z,71.47
2024-04-30T01:53:11.942Z,71.57
2024-04-30T01:54:12.725Z,71.77
2024-04-30T01:55:13.555Z,71.67
2024-04-30T01:56:14.278Z,71.37
2024-04-30T01:57:15.011Z,71.26
2024-04-30T01:58:15.970Z,71.37
2024-04-30T01:59:16.541Z,71.16
2024-04-30T02:00:17.242Z,71.16
2024-04-30T02:01:18.028Z,71.26
2024-04-30T02:02:18.664Z,71.37
2024-04-30T02:03:19.463Z,71.77
2024-04-30T02:04:20.196Z,71.57
2024-04-30T02:05:25.030Z,71.77
2024-04-30T02:06:21.499Z,71.47
2024-04-30T02:07:22.223Z,71.77
2024-04-30T02:08:22.918Z,71.77
2024-04-30T02:09:23.596Z,71.88
2024-04-30T02:10:24.325Z,71.77
2024-04-30T02:11:25.073Z,72.08
2024-04-30T02:12:25.690Z,72.28
2024-04-30T02:13:26.568Z,72.17
2024-04-30T02:14:26.884Z,72.28
2024-04-30T02:15:27.591Z,72.31
2024-04-30T02:16:28.454Z,72.31
2024-04-30T02:17:29.303Z,72.61
2024-04-30T02:18:29.922Z,72.52
2024-04-30T02:19:30.701Z,72.82
2024-04-30T02:20:31.492Z,72.72
2024-04-30T02:21:32.208Z,72.61
2024-04-30T02:22:33.036Z,72.82
2024-04-30T02:23:33.699Z,72.52
2024-04-30T02:24:34.403Z,72.72
2024-04-30T02:25:35.318Z,72.72
2024-04-30T02:26:37.085Z,72.61
2024-04-30T02:27:36.776Z,72.72
2024-04-30T02:28:37.604Z,72.61
2024-04-30T02:29:38.299Z,72.75
2024-04-30T02:30:39.124Z,72.96
2024-04-30T02:31:39.935Z,72.45
2024-04-30T02:32:40.787Z,72.45
2024-04-30T02:33:41.641Z,72.65
2024-04-30T02:34:42.347Z,72.34
2024-04-30T02:35:43.113Z,72.34
2024-04-30T02:36:43.970Z,72.65
2024-04-30T02:37:44.641Z,72.96
2024-04-30T02:38:45.357Z,72.75
2024-04-30T02:39:46.099Z,72.85
2024-04-30T02:40:46.809Z,72.85
2024-04-30T02:41:47.486Z,73.16
2024-04-30T02:42:48.160Z,73.26
2024-04-30T02:43:48.904Z,73.46
2024-04-30T02:44:49.713Z,73.57
2024-04-30T02:45:50.527Z,73.70
2024-04-30T02:46:51.248Z,73.80
2024-04-30T02:47:51.963Z,73.90
2024-04-30T02:48:52.737Z,73.90
2024-04-30T02:49:53.550Z,74.01
2024-04-30T02:50:54.381Z,74.31
2024-04-30T02:51:55.225Z,74.21
2024-04-30T02:52:55.962Z,74.41
2024-04-30T02:53:56.846Z,74.10
2024-04-30T02:54:57.626Z,74.10
2024-04-30T02:55:58.445Z,74.10
2024-04-30T02:56:59.153Z,73.90
2024-04-30T02:58:00.075Z,73.90
2024-04-30T02:59:00.729Z,73.90
2024-04-30T03:00:01.740Z,73.80
2024-04-30T03:01:02.481Z,73.90
2024-04-30T03:02:03.048Z,73.90
2024-04-30T03:03:03.708Z,74.01
2024-04-30T03:04:04.645Z,73.90
2024-04-30T03:05:05.080Z,73.80
2024-04-30T03:06:05.747Z,73.60
2024-04-30T03:07:06.517Z,73.80
2024-04-30T03:08:07.292Z,74.01
2024-04-30T03:09:08.117Z,73.70
2024-04-30T03:10:08.851Z,74.01
2024-04-30T03:11:09.626Z,74.31
2024-04-30T03:12:10.205Z,74.01
2024-04-30T03:13:10.921Z,74.34
2024-04-30T03:14:11.586Z,74.55
2024-04-30T03:15:15.443Z,74.85
2024-04-30T03:16:13.355Z,74.85
2024-04-30T03:17:14.054Z,74.75
2024-04-30T03:18:14.766Z,74.85
2024-04-30T03:19:15.574Z,74.95
2024-04-30T03:20:16.242Z,74.85
2024-04-30T03:21:16.953Z,74.65
2024-04-30T03:22:17.698Z,74.95
2024-04-30T03:23:18.335Z,74.85
2024-04-30T03:24:19.004Z,75.16
2024-04-30T03:25:19.785Z,75.16
2024-04-30T03:26:20.567Z,74.95
2024-04-30T03:27:21.317Z,74.75
2024-04-30T03:28:22.087Z,74.65
2024-04-30T03:29:22.758Z,74.65
2024-04-30T03:30:23.534Z,74.85
2024-04-30T03:31:24.258Z,75.09
2024-04-30T03:32:25.634Z,75.29
2024-04-30T03:33:25.924Z,75.19
2024-04-30T03:34:26.660Z,75.29
2024-04-30T03:35:27.758Z,75.09
2024-04-30T03:36:27.672Z,75.09
2024-04-30T03:37:28.338Z,75.09
2024-04-30T03:38:29.130Z,75.40
2024-04-30T03:39:29.873Z,75.19
2024-04-30T03:40:30.595Z,75.40
2024-04-30T03:41:31.333Z,75.60
2024-04-30T03:42:31.901Z,75.60
2024-04-30T03:43:32.871Z,75.80
2024-04-30T03:44:33.346Z,75.40
2024-04-30T03:45:34.606Z,75.46
2024-04-30T03:46:35.044Z,75.60
2024-04-30T03:47:35.539Z,75.60
2024-04-30T03:48:36.040Z,75.60
2024-04-30T03:49:36.979Z,75.70
2024-04-30T03:50:37.628Z,76.01
2024-04-30T03:51:38.392Z,75.80
2024-04-30T03:52:39.131Z,75.70
2024-04-30T03:53:39.988Z,75.70
2024-04-30T03:54:40.562Z,75.26
2024-04-30T03:55:41.174Z,75.05
2024-04-30T03:56:41.735Z,74.95
2024-04-30T03:57:42.344Z,75.19
2024-04-30T03:58:43.159Z,75.60
2024-04-30T03:59:43.890Z,75.60
2024-04-30T04:00:44.610Z,75.60
2024-04-30T04:01:45.244Z,75.90
2024-04-30T04:02:45.851Z,76.01
2024-04-30T04:03:46.452Z,75.70
2024-04-30T04:04:47.022Z,75.70
2024-04-30T04:05:47.564Z,75.90
2024-04-30T04:06:48.656Z,75.60
2024-04-30T04:07:48.746Z,76.01
2024-04-30T04:08:49.559Z,75.90
2024-04-30T04:09:50.147Z,75.60
2024-04-30T04:10:50.743Z,75.80
2024-04-30T04:11:53.845Z,76.01
2024-04-30T04:12:54.484Z,76.10
2024-04-30T04:13:54.499Z,75.80
2024-04-30T04:14:55.171Z,75.87
2024-04-30T04:15:56.677Z,75.80
2024-04-30T04:17:01.315Z,75.97
2024-04-30T04:17:57.900Z,75.46
2024-04-30T04:18:56.660Z,75.36
2024-04-30T04:19:57.512Z,75.26
2024-04-30T04:20:58.140Z,75.67
2024-04-30T04:21:58.816Z,75.56
2024-04-30T04:22:59.398Z,75.76
2024-04-30T04:23:59.997Z,75.36
2024-04-30T04:25:00.682Z,75.16
2024-04-30T04:26:01.178Z,75.05
2024-04-30T04:27:01.785Z,74.85
2024-04-30T04:28:02.497Z,74.55
2024-04-30T04:29:03.050Z,75.16
2024-04-30T04:30:03.633Z,74.95
2024-04-30T04:31:04.280Z,74.95
2024-04-30T04:32:04.913Z,74.65
2024-04-30T04:33:05.737Z,75.05
2024-04-30T04:34:06.436Z,74.85
2024-04-30T04:35:09.047Z,74.95
2024-04-30T04:36:10.607Z,75.22
2024-04-30T04:37:10.598Z,74.82
2024-04-30T04:38:12.748Z,74.82
2024-04-30T04:39:10.498Z,74.92
2024-04-30T04:40:11.214Z,75.32
2024-04-30T04:41:11.710Z,75.22
2024-04-30T04:42:12.485Z,75.32
2024-04-30T04:43:13.399Z,75.12
2024-04-30T04:44:13.960Z,75.26
2024-04-30T04:45:14.572Z,75.02
2024-04-30T04:46:15.178Z,74.71
2024-04-30T04:47:15.817Z,75.12
2024-04-30T04:48:16.408Z,75.12
2024-04-30T04:49:16.985Z,75.02
2024-04-30T04:50:17.575Z,74.21
2024-04-30T04:51:18.226Z,74.71
2024-04-30T04:52:18.963Z,74.82
2024-04-30T04:53:19.527Z,74.62
2024-04-30T04:54:20.151Z,74.51
2024-04-30T04:55:20.896Z,75.12
2024-04-30T04:56:21.474Z,75.32
2024-04-30T04:57:22.187Z,75.22
2024-04-30T04:58:22.943Z,75.32
2024-04-30T04:59:23.499Z,75.52
2024-04-30T05:00:24.335Z,75.63
2024-04-30T05:01:25.118Z,75.93
2024-04-30T05:02:25.827Z,76.44
2024-04-30T05:03:26.467Z,76.24
2024-04-30T05:04:27.150Z,75.32
2024-04-30T05:05:27.573Z,75.83
2024-04-30T05:06:28.369Z,75.43
2024-04-30T05:07:29.003Z,75.83
2024-04-30T05:08:29.533Z,75.22
2024-04-30T05:09:30.135Z,75.43
2024-04-30T05:10:30.738Z,75.22
2024-04-30T05:11:31.394Z,74.58
2024-04-30T05:12:32.061Z,74.78
2024-04-30T05:13:32.855Z,74.98
2024-04-30T05:14:33.359Z,75.19
2024-04-30T05:15:34.057Z,75.19
2024-04-30T05:16:34.758Z,75.19
2024-04-30T05:17:35.336Z,75.19
2024-04-30T05:18:35.842Z,74.68
2024-04-30T05:19:36.521Z,74.68
2024-04-30T05:20:37.266Z,74.98
2024-04-30T05:21:37.975Z,75.05
2024-04-30T05:22:42.272Z,75.05
2024-04-30T05:23:39.554Z,74.95
2024-04-30T05:24:40.432Z,74.54
2024-04-30T05:25:41.228Z,74.65
2024-04-30T05:26:41.774Z,73.63
2024-04-30T05:27:42.354Z,74.14
2024-04-30T05:28:43.132Z,74.74
2024-04-30T05:29:43.887Z,74.54
2024-04-30T05:30:44.578Z,74.74
2024-04-30T05:31:45.249Z,74.85
2024-04-30T05:32:46.012Z,74.85
2024-04-30T05:33:46.511Z,74.14
2024-04-30T05:34:47.141Z,73.43
2024-04-30T05:35:47.699Z,73.70
2024-04-30T05:36:48.434Z,73.29
2024-04-30T05:37:49.123Z,73.80
2024-04-30T05:38:49.653Z,73.29
2024-04-30T05:39:50.294Z,73.70
2024-04-30T05:40:50.908Z,73.09
2024-04-30T05:41:51.635Z,73.09
2024-04-30T05:42:52.262Z,73.60
2024-04-30T05:43:53.416Z,73.66
2024-04-30T05:44:53.804Z,73.46
2024-04-30T05:45:54.592Z,72.65
2024-04-30T05:46:55.207Z,72.85
2024-04-30T05:47:56.701Z,72.55
2024-04-30T05:48:56.807Z,72.34
2024-04-30T05:49:57.406Z,72.34
2024-04-30T05:50:57.967Z,72.45
2024-04-30T05:51:58.698Z,71.44
2024-04-30T05:52:59.421Z,71.33
2024-04-30T05:53:59.998Z,71.03
2024-04-30T05:55:00.575Z,71.33
2024-04-30T05:56:01.151Z,71.03
2024-04-30T05:57:01.771Z,71.53
2024-04-30T05:58:02.518Z,71.53
2024-04-30T05:59:03.292Z,72.45
2024-04-30T06:00:03.972Z,71.44
2024-04-30T06:01:04.806Z,72.34
2024-04-30T06:02:05.278Z,72.96
2024-04-30T06:03:05.922Z,73.16
2024-04-30T06:04:06.623Z,72.75
2024-04-30T06:05:07.255Z,72.04
2024-04-30T06:06:07.614Z,72.31
2024-04-30T06:07:08.424Z,72.31
2024-04-30T06:08:09.222Z,72.61
2024-04-30T06:09:09.997Z,71.80
2024-04-30T06:10:10.742Z,72.01
2024-04-30T06:11:11.302Z,71.60
2024-04-30T06:12:11.943Z,71.91
2024-04-30T06:13:12.662Z,70.89
2024-04-30T06:14:13.470Z,70.08
2024-04-30T06:15:14.133Z,71.30
2024-04-30T06:16:14.740Z,72.28
2024-04-30T06:17:15.344Z,72.58
2024-04-30T06:18:16.163Z,72.78
2024-04-30T06:19:16.977Z,72.99
2024-04-30T06:20:17.629Z,73.09
2024-04-30T06:21:27.001Z,73.39
2024-04-30T06:22:18.958Z,73.19
2024-04-30T06:23:19.541Z,73.09
2024-04-30T06:24:20.118Z,72.28
2024-04-30T06:25:20.727Z,72.38
2024-04-30T06:26:21.332Z,71.88
2024-04-30T06:27:21.920Z,70.96
2024-04-30T06:28:22.655Z,71.37
2024-04-30T06:29:23.200Z,71.23
2024-04-30T06:30:25.504Z,71.84
2024-04-30T06:31:27.240Z,71.64
2024-04-30T06:32:26.825Z,72.04
2024-04-30T06:33:27.869Z,70.93
2024-04-30T06:34:28.187Z,70.93
2024-04-30T06:35:29.666Z,70.93
2024-04-30T06:36:30.925Z,72.04
2024-04-30T06:37:30.523Z,71.73
2024-04-30T06:38:32.389Z,72.04
2024-04-30T06:39:31.306Z,72.65
2024-04-30T06:40:31.183Z,72.75
2024-04-30T06:41:31.717Z,72.65
2024-04-30T06:42:32.333Z,72.65
2024-04-30T06:43:32.931Z,71.80
2024-04-30T06:44:33.487Z,70.79
2024-04-30T06:45:34.109Z,70.89
2024-04-30T06:46:34.910Z,71.80
2024-04-30T06:47:36.278Z,70.46
2024-04-30T06:48:36.332Z,70.96
2024-04-30T06:49:36.605Z,71.26
2024-04-30T06:50:39.897Z,71.57
2024-04-30T06:51:39.733Z,72.08
2024-04-30T06:52:40.549Z,72.38
2024-04-30T06:53:40.367Z,72.17
2024-04-30T06:54:42.241Z,69.75
2024-04-30T06:55:42.148Z,70.36
2024-04-30T06:56:43.209Z,70.12
2024-04-30T06:57:45.082Z,70.12
2024-04-30T06:58:45.191Z,69.71
2024-04-30T06:59:45.209Z,69.71
2024-04-30T07:00:44.292Z,69.71
2024-04-30T07:01:44.923Z,65.14
2024-04-30T07:02:45.510Z,66.86
2024-04-30T07:03:46.292Z,65.14
2024-04-30T07:04:46.942Z,68.17
2024-04-30T07:05:47.646Z,65.54
2024-04-30T07:06:48.371Z,67.83
2024-04-30T07:07:48.956Z,65.21
2024-04-30T07:08:49.620Z,64.90
2024-04-30T07:09:50.190Z,64.07
2024-04-30T07:10:50.902Z,64.07
2024-04-30T07:11:51.390Z,63.16
2024-04-30T07:12:52.126Z,63.76
2024-04-30T07:13:52.851Z,63.56
2024-04-30T07:14:53.432Z,64.95
2024-04-30T07:15:54.012Z,64.44
2024-04-30T07:17:02.510Z,62.73
2024-04-30T07:17:55.257Z,61.82
2024-04-30T07:18:55.826Z,62.52
2024-04-30T07:19:56.474Z,64.92
2024-04-30T07:20:57.180Z,63.00
2024-04-30T07:21:57.852Z,63.10
2024-04-30T07:22:58.579Z,63.00
2024-04-30T07:23:59.204Z,60.85
2024-04-30T07:24:59.915Z,61.56
2024-04-30T07:26:00.570Z,62.06
2024-04-30T07:27:01.723Z,63.47
2024-04-30T07:28:01.946Z,64.28
2024-04-30T07:29:02.513Z,65.06
2024-04-30T07:30:03.113Z,63.65
2024-04-30T07:31:03.715Z,59.62
2024-04-30T07:32:04.337Z,58.51
2024-04-30T07:33:05.019Z,58.71
2024-04-30T07:34:05.608Z,61.73
2024-04-30T07:35:06.793Z,62.94
2024-04-30T07:36:07.007Z,62.94
2024-04-30T07:37:08.250Z,61.60
2024-04-30T07:38:08.453Z,58.38
2024-04-30T07:39:09.214Z,58.58
2024-04-30T07:40:09.833Z,60.29
2024-04-30T07:41:10.412Z,59.56
2024-04-30T07:42:10.985Z,58.05
2024-04-30T07:43:11.706Z,59.46
2024-04-30T07:44:14.076Z,59.23
2024-04-30T07:45:13.252Z,58.22
2024-04-30T07:46:13.919Z,59.33
2024-04-30T07:47:14.526Z,59.70
2024-04-30T07:48:15.215Z,59.91
2024-04-30T07:49:15.753Z,59.50
2024-04-30T07:50:16.424Z,61.71
2024-04-30T07:51:17.012Z,60.00
2024-04-30T07:52:18.210Z,59.88
2024-04-30T07:53:18.296Z,59.78
2024-04-30T07:54:19.006Z,59.38
2024-04-30T07:55:19.668Z,59.58
2024-04-30T07:56:20.236Z,61.05
2024-04-30T07:57:21.016Z,60.35
2024-04-30T07:58:21.726Z,59.65
2024-04-30T07:59:22.407Z,60.02
2024-04-30T08:00:23.180Z,57.11
2024-04-30T08:01:23.797Z,54.80
2024-04-30T08:02:24.532Z,57.51
2024-04-30T08:03:25.128Z,58.69
2024-04-30T08:04:25.925Z,58.39
2024-04-30T08:05:26.804Z,57.18
2024-04-30T08:06:27.161Z,56.96
2024-04-30T08:07:27.756Z,55.15
2024-04-30T08:08:28.875Z,56.26
2024-04-30T08:09:29.215Z,56.26
2024-04-30T08:10:29.848Z,55.55
2024-04-30T08:11:30.589Z,56.33
2024-04-30T08:12:31.460Z,58.73
2024-04-30T08:13:32.226Z,59.23
2024-04-30T08:14:37.786Z,60.14
2024-04-30T08:15:38.530Z,58.23
2024-04-30T08:16:34.239Z,57.93
2024-04-30T08:17:35.881Z,57.46
2024-04-30T08:18:35.386Z,57.53
2024-04-30T08:19:36.217Z,58.03
2024-04-30T08:20:36.735Z,56.73
2024-04-30T08:21:37.322Z,57.23
2024-04-30T08:22:38.014Z,59.53
2024-04-30T08:23:38.542Z,59.13
2024-04-30T08:24:39.261Z,54.72
2024-04-30T08:25:40.057Z,52.92
2024-04-30T08:26:40.623Z,55.52
2024-04-30T08:27:42.851Z,55.52
2024-04-30T08:28:43.782Z,56.83
2024-04-30T08:29:44.094Z,57.13
2024-04-30T08:30:44.362Z,53.12
2024-04-30T08:31:45.013Z,51.72
2024-04-30T08:32:45.686Z,52.22
2024-04-30T08:33:46.273Z,53.42
2024-04-30T08:34:46.830Z,54.12
2024-04-30T08:35:47.454Z,55.93
2024-04-30T08:36:48.211Z,53.42
2024-04-30T08:37:54.953Z,53.42
2024-04-30T08:38:49.543Z,55.52
2024-04-30T08:39:50.051Z,52.62
2024-04-30T08:40:50.791Z,52.92
2024-04-30T08:41:51.253Z,53.62
2024-04-30T08:42:51.880Z,54.43
2024-04-30T08:43:52.539Z,53.72
2024-04-30T08:44:53.247Z,52.82
2024-04-30T08:45:53.904Z,51.82
2024-04-30T08:46:54.622Z,55.13
2024-04-30T08:47:55.175Z,56.13
2024-04-30T08:48:55.711Z,54.82
2024-04-30T08:50:01.336Z,54.52
2024-04-30T08:50:58.057Z,53.92
2024-04-30T08:51:57.891Z,52.62
2024-04-30T08:52:59.221Z,54.10
2024-04-30T08:53:59.496Z,54.10
2024-04-30T08:55:01.841Z,55.10
2024-04-30T08:56:01.795Z,55.30
2024-04-30T08:57:01.422Z,51.17
2024-04-30T08:58:02.173Z,50.57
2024-04-30T08:59:02.768Z,50.46
2024-04-30T09:00:04.277Z,52.74
2024-04-30T09:01:04.613Z,52.64
2024-04-30T09:02:04.885Z,51.74
2024-04-30T09:03:05.656Z,50.02
2024-04-30T09:04:06.197Z,50.42
2024-04-30T09:05:06.790Z,50.49
2024-04-30T09:06:07.571Z,49.90
2024-04-30T09:07:08.187Z,49.29
2024-04-30T09:08:08.749Z,50.27
2024-04-30T09:09:09.478Z,48.67
2024-04-30T09:10:10.304Z,47.47
2024-04-30T09:11:11.181Z,48.65
2024-04-30T09:12:11.719Z,48.35
2024-04-30T09:13:12.474Z,50.15
2024-04-30T09:14:13.063Z,48.93
2024-04-30T09:15:13.654Z,47.42
2024-04-30T09:16:14.304Z,46.33
2024-04-30T09:17:14.843Z,45.63
2024-04-30T09:18:15.523Z,45.71
2024-04-30T09:19:16.078Z,45.21
2024-04-30T09:20:16.635Z,47.20
2024-04-30T09:21:17.745Z,48.38
2024-04-30T09:22:17.872Z,46.78
2024-04-30T09:23:18.588Z,46.68
2024-04-30T09:24:19.163Z,48.28
2024-04-30T09:25:19.928Z,47.86
2024-04-30T09:26:21.202Z,46.48
2024-04-30T09:27:21.419Z,48.65
2024-04-30T09:28:22.211Z,47.56
2024-04-30T09:29:22.761Z,47.45
2024-04-30T09:30:23.443Z,45.96
2024-04-30T09:31:24.054Z,44.29
2024-04-30T09:32:24.757Z,47.08
2024-04-30T09:33:25.325Z,48.38
2024-04-30T09:34:26.069Z,47.98
2024-04-30T09:35:26.575Z,45.18
2024-04-30T09:36:27.173Z,45.39
2024-04-30T09:37:27.830Z,45.59
2024-04-30T09:38:28.398Z,46.98
2024-04-30T09:39:29.169Z,47.16
2024-04-30T09:40:29.744Z,46.46
2024-04-30T09:41:30.539Z,46.56
2024-04-30T09:42:31.048Z,47.16
2024-04-30T09:43:31.661Z,45.47
2024-04-30T09:44:32.219Z,46.56
2024-04-30T09:45:33.114Z,45.56
2024-04-30T09:46:33.863Z,44.67
2024-04-30T09:47:34.397Z,45.06
2024-04-30T09:48:35.035Z,47.06
2024-04-30T09:49:35.638Z,46.76
2024-04-30T09:50:36.191Z,46.36
2024-04-30T09:51:37.295Z,44.76
2024-04-30T09:52:37.864Z,47.74
2024-04-30T09:53:38.306Z,47.14
2024-04-30T09:54:39.726Z,49.93
2024-04-30T09:55:40.070Z,45.34
2024-04-30T09:56:40.601Z,45.64
2024-04-30T09:57:41.296Z,45.54
2024-04-30T09:58:42.071Z,49.33
2024-04-30T09:59:42.636Z,44.94
2024-04-30T10:00:43.281Z,44.45
2024-04-30T10:01:44.004Z,45.04
2024-04-30T10:02:44.546Z,45.72
2024-04-30T10:03:45.735Z,44.32
2024-04-30T10:04:46.010Z,44.32
2024-04-30T10:05:46.790Z,44.23
2024-04-30T10:06:49.779Z,44.02
2024-04-30T10:07:48.012Z,43.82
2024-04-30T10:08:48.712Z,44.42
2024-04-30T10:09:49.280Z,44.72
2024-04-30T10:10:50.013Z,45.12
2024-04-30T10:11:50.461Z,45.72
2024-04-30T10:12:51.057Z,48.11
2024-04-30T10:13:51.883Z,47.41
2024-04-30T10:14:52.424Z,50.13
2024-04-30T10:15:53.015Z,45.64
2024-04-30T10:16:53.750Z,46.34
2024-04-30T10:17:54.360Z,45.74
2024-04-30T10:18:55.033Z,46.34
2024-04-30T10:19:55.731Z,48.43
2024-04-30T10:20:56.323Z,47.93
2024-04-30T10:21:56.989Z,49.23
2024-04-30T10:22:57.559Z,47.74
2024-04-30T10:23:58.197Z,49.33
2024-04-30T10:24:58.868Z,48.43
2024-04-30T10:25:59.468Z,47.83
2024-04-30T10:27:00.241Z,49.23
2024-04-30T10:28:00.970Z,47.41
2024-04-30T10:29:01.669Z,46.54
2024-04-30T10:30:02.251Z,44.35
2024-04-30T10:31:02.830Z,46.84
2024-04-30T10:32:03.427Z,46.73
2024-04-30T10:33:04.228Z,47.02
2024-04-30T10:34:04.747Z,45.52
2024-04-30T10:35:05.256Z,49.60
2024-04-30T10:36:05.941Z,46.51
2024-04-30T10:37:06.660Z,44.82
2024-04-30T10:38:07.411Z,48.21
2024-04-30T10:39:08.011Z,46.42
2024-04-30T10:40:08.724Z,48.38
2024-04-30T10:41:09.323Z,47.59
2024-04-30T10:42:10.065Z,49.88
2024-04-30T10:43:10.678Z,44.88
2024-04-30T10:44:11.346Z,43.07
2024-04-30T10:45:11.946Z,46.05
2024-04-30T10:46:12.538Z,42.27
2024-04-30T10:47:13.179Z,42.17
2024-04-30T10:48:13.776Z,42.25
2024-04-30T10:49:14.376Z,46.70
2024-04-30T10:50:18.980Z,42.13
2024-04-30T10:51:16.505Z,40.33
2024-04-30T10:52:16.140Z,41.38
2024-04-30T10:53:16.811Z,39.75
2024-04-30T10:54:17.625Z,37.15
2024-04-30T10:55:18.299Z,38.72
2024-04-30T10:56:18.929Z,38.11
2024-04-30T10:57:19.505Z,38.47
2024-04-30T10:58:20.279Z,36.87
2024-04-30T10:59:20.963Z,35.47
2024-04-30T11:00:21.531Z,35.35
2024-04-30T11:01:22.224Z,37.30
2024-04-30T11:02:22.926Z,36.02
2024-04-30T11:03:23.687Z,35.91
2024-04-30T11:04:24.422Z,38.28
2024-04-30T11:05:25.107Z,37.98
2024-04-30T11:06:25.673Z,36.68
2024-04-30T11:07:26.248Z,34.51
2024-04-30T11:08:26.924Z,34.63
2024-04-30T11:09:28.580Z,33.06
2024-04-30T11:10:28.325Z,35.33
2024-04-30T11:11:28.855Z,34.95
2024-04-30T11:12:29.439Z,35.96
2024-04-30T11:13:30.102Z,35.57
2024-04-30T11:14:30.648Z,35.38
2024-04-30T11:15:31.352Z,37.98
2024-04-30T11:16:31.967Z,38.96
2024-04-30T11:17:32.793Z,39.64
2024-04-30T11:18:33.682Z,35.19
2024-04-30T11:19:34.149Z,35.09
2024-04-30T11:20:34.696Z,36.87
2024-04-30T11:21:35.532Z,39.93
2024-04-30T11:22:36.255Z,36.06
2024-04-30T11:23:36.800Z,35.86
2024-04-30T11:24:37.400Z,35.15
2024-04-30T11:25:37.996Z,34.27
2024-04-30T11:26:38.583Z,34.58
2024-04-30T11:27:39.283Z,36.65
2024-04-30T11:28:40.202Z,35.86
2024-04-30T11:29:40.905Z,35.86
2024-04-30T11:30:41.231Z,35.05
2024-04-30T11:31:41.889Z,35.15
2024-04-30T11:32:42.513Z,37.32
2024-04-30T11:33:43.064Z,38.00
2024-04-30T11:34:43.788Z,34.82
2024-04-30T11:35:44.239Z,34.03
2024-04-30T11:36:44.825Z,33.74
2024-04-30T11:37:45.640Z,36.21
2024-04-30T11:38:46.315Z,37.76
2024-04-30T11:39:46.892Z,36.86
2024-04-30T11:40:47.483Z,37.85
2024-04-30T11:41:52.329Z,33.22
2024-04-30T11:42:48.698Z,33.41
2024-04-30T11:43:49.358Z,33.01
2024-04-30T11:44:49.896Z,34.30
2024-04-30T11:45:50.575Z,33.62
2024-04-30T11:46:51.299Z,35.50
2024-04-30T11:47:52.074Z,34.59
2024-04-30T11:48:52.675Z,35.18
2024-04-30T11:49:53.243Z,35.07
2024-04-30T11:50:53.821Z,32.41
2024-04-30T11:51:54.578Z,34.18
2024-04-30T11:52:55.443Z,35.27
2024-04-30T11:53:55.857Z,33.49
2024-04-30T11:54:56.620Z,33.49
2024-04-30T11:55:57.276Z,34.46
2024-04-30T11:56:57.972Z,35.63
2024-04-30T11:57:58.529Z,35.43
2024-04-30T11:58:59.104Z,32.17
2024-04-30T11:59:59.723Z,31.88
2024-04-30T12:01:00.613Z,32.18
2024-04-30T12:02:01.283Z,32.67
2024-04-30T12:03:01.892Z,32.17
2024-04-30T12:04:02.360Z,32.36
2024-04-30T12:05:03.243Z,33.05
2024-04-30T12:06:03.680Z,31.85
2024-04-30T12:07:04.417Z,35.99
2024-04-30T12:08:05.160Z,34.69
2024-04-30T12:09:05.694Z,33.51
2024-04-30T12:10:06.492Z,33.29
2024-04-30T12:11:07.115Z,30.53
2024-04-30T12:12:07.654Z,32.89
2024-04-30T12:13:08.256Z,34.44
2024-04-30T12:14:08.871Z,31.38
2024-04-30T12:15:09.646Z,32.66
2024-04-30T12:16:10.360Z,31.67
2024-04-30T12:17:11.030Z,29.98
2024-04-30T12:18:11.486Z,30.77
2024-04-30T12:19:12.109Z,29.48
2024-04-30T12:20:12.834Z,31.83
2024-04-30T12:21:13.382Z,30.36
2024-04-30T12:22:14.020Z,29.07
2024-04-30T12:23:14.606Z,31.73
2024-04-30T12:24:15.203Z,29.58
2024-04-30T12:25:16.071Z,28.79
2024-04-30T12:26:16.740Z,30.36
2024-04-30T12:27:17.343Z,30.46
2024-04-30T12:28:17.933Z,31.34
2024-04-30T12:29:18.531Z,30.35
2024-04-30T12:30:19.225Z,28.58
2024-04-30T12:31:19.832Z,29.17
2024-04-30T12:32:20.449Z,29.27
2024-04-30T12:33:21.366Z,32.60
2024-04-30T12:34:22.090Z,32.09
2024-04-30T12:35:22.663Z,31.68
2024-04-30T12:36:23.370Z,29.61
2024-04-30T12:37:23.998Z,30.29
2024-04-30T12:38:24.559Z,29.99
2024-04-30T12:39:25.217Z,31.05
2024-04-30T12:40:25.810Z,30.96
2024-04-30T12:41:26.504Z,30.84
2024-04-30T12:42:27.129Z,27.81
2024-04-30T12:43:27.736Z,26.54
2024-04-30T12:44:28.431Z,27.34
2024-04-30T12:45:29.026Z,27.75
2024-04-30T12:46:29.625Z,27.17
2024-04-30T12:47:30.201Z,30.30
2024-04-30T12:48:30.858Z,31.00
2024-04-30T12:49:31.407Z,31.57
2024-04-30T12:50:32.232Z,31.16
2024-04-30T12:51:32.932Z,30.66
2024-04-30T12:52:33.640Z,29.79
2024-04-30T12:53:34.131Z,29.30
2024-04-30T12:54:34.719Z,30.37
2024-04-30T12:55:35.674Z,30.06
2024-04-30T12:56:35.893Z,27.33
2024-04-30T12:57:36.547Z,29.67
2024-04-30T12:58:37.354Z,27.42
2024-04-30T12:59:37.948Z,26.76
2024-04-30T13:00:38.534Z,26.97
2024-04-30T13:01:39.286Z,28.15